createdAt,value
2023-10-09T00:02:11.933Z,70.24
2023-10-09T00:04:43.213Z,70.50
2023-10-09T00:07:11.824Z,70.20
2023-10-09T00:09:48.656Z,70.60
2023-10-09T00:12:25.116Z,70.51
2023-10-09T00:14:57.412Z,70.51
2023-10-09T00:17:25.257Z,70.93
2023-10-09T00:19:53.584Z,70.41
2023-10-09T00:22:27.163Z,70.50
2023-10-09T00:25:13.372Z,71.75
2023-10-09T00:27:45.696Z,72.40
2023-10-09T00:30:19.884Z,71.78
2023-10-09T00:33:00.366Z,71.87
2023-10-09T00:35:38.194Z,72.22
2023-10-09T00:38:22.406Z,72.05
2023-10-09T00:41:14.155Z,72.79
2023-10-09T00:43:44.003Z,72.09
2023-10-09T00:46:25.263Z,72.99
2023-10-09T00:49:03.575Z,72.84
2023-10-09T00:51:37.189Z,72.70
2023-10-09T00:54:16.305Z,73.77
2023-10-09T00:56:58.356Z,73.53
2023-10-09T00:59:26.675Z,73.47
2023-10-09T01:02:00.435Z,73.26
2023-10-09T01:04:29.601Z,73.10
2023-10-09T01:07:11.908Z,73.48
2023-10-09T01:09:39.869Z,73.43
2023-10-09T01:12:07.329Z,73.04
2023-10-09T01:14:37.763Z,72.77
2023-10-09T01:17:10.590Z,73.32
2023-10-09T01:19:38.137Z,73.25
2023-10-09T01:22:14.509Z,73.12
2023-10-09T01:24:42.279Z,73.22
2023-10-09T01:27:15.649Z,73.27
2023-10-09T01:29:43.525Z,73.65
2023-10-09T01:32:20.577Z,73.65
2023-10-09T01:34:51.517Z,73.36
2023-10-09T01:37:30.548Z,73.82
2023-10-09T01:40:00.761Z,73.63
2023-10-09T01:42:33.719Z,73.40
2023-10-09T01:45:27.351Z,73.64
2023-10-09T01:47:58.400Z,74.34
2023-10-09T01:50:32.330Z,73.79
2023-10-09T01:53:03.780Z,74.15
2023-10-09T01:55:40.956Z,74.39
2023-10-09T01:58:18.353Z,74.51
2023-10-09T02:00:50.741Z,74.81
2023-10-09T02:03:18.722Z,74.43
2023-10-09T02:05:46.276Z,74.99
2023-10-09T02:08:14.150Z,74.55
2023-10-09T02:10:41.224Z,75.24
2023-10-09T02:13:09.025Z,74.72
2023-10-09T02:15:43.807Z,75.39
2023-10-09T02:18:25.364Z,74.99
2023-10-09T02:21:13.551Z,75.49
2023-10-09T02:23:50.160Z,75.31
2023-10-09T02:26:25.966Z,75.69
2023-10-09T02:29:01.041Z,75.49
2023-10-09T02:31:37.288Z,76.04
2023-10-09T02:34:06.344Z,76.01
2023-10-09T02:36:36.159Z,76.18
2023-10-09T02:39:06.825Z,76.23
2023-10-09T02:41:35.620Z,76.29
2023-10-09T02:44:12.588Z,76.39
2023-10-09T02:46:41.507Z,75.96
2023-10-09T02:49:10.610Z,76.14
2023-10-09T02:51:43.860Z,75.93
2023-10-09T02:54:33.662Z,75.96
2023-10-09T02:57:16.716Z,76.29
2023-10-09T02:59:46.087Z,76.80
2023-10-09T03:02:13.326Z,76.84
2023-10-09T03:04:42.679Z,76.84
2023-10-09T03:07:11.540Z,77.04
2023-10-09T03:09:39.364Z,77.06
2023-10-09T03:12:10.869Z,77.77
2023-10-09T03:14:39.668Z,77.18
2023-10-09T03:17:12.434Z,78.09
2023-10-09T03:19:41.469Z,78.06
2023-10-09T03:22:12.322Z,78.12
2023-10-09T03:24:48.749Z,77.85
2023-10-09T03:27:17.101Z,77.92
2023-10-09T03:29:50.095Z,78.28
2023-10-09T03:32:17.457Z,77.74
2023-10-09T03:34:44.983Z,77.88
2023-10-09T03:37:35.144Z,78.25
2023-10-09T03:40:04.749Z,77.55
2023-10-09T03:42:31.730Z,77.86
2023-10-09T03:44:59.082Z,77.78
2023-10-09T03:47:28.637Z,78.25
2023-10-09T03:49:55.927Z,78.03
2023-10-09T03:52:27.024Z,77.91
2023-10-09T03:54:55.843Z,77.82
2023-10-09T03:57:24.731Z,77.87
2023-10-09T03:59:53.047Z,77.86
2023-10-09T04:02:23.105Z,77.71
2023-10-09T04:04:52.934Z,77.43
2023-10-09T04:07:20.092Z,77.59
2023-10-09T04:09:49.110Z,78.06
2023-10-09T04:12:26.201Z,77.86
2023-10-09T04:14:58.886Z,77.66
2023-10-09T04:17:35.915Z,77.79
2023-10-09T04:20:20.412Z,77.82
2023-10-09T04:23:01.521Z,77.95
2023-10-09T04:25:42.698Z,77.90
2023-10-09T04:28:13.069Z,77.99
2023-10-09T04:30:56.641Z,77.64
2023-10-09T04:33:30.091Z,77.79
2023-10-09T04:36:22.200Z,77.87
2023-10-09T04:39:04.734Z,78.33
2023-10-09T04:41:53.148Z,77.48
2023-10-09T04:44:23.999Z,77.73
2023-10-09T04:47:14.135Z,78.27
2023-10-09T04:50:03.677Z,77.54
2023-10-09T04:52:31.065Z,78.15
2023-10-09T04:55:08.665Z,78.44
2023-10-09T04:57:43.631Z,78.45
2023-10-09T05:00:27.796Z,78.45
2023-10-09T05:03:26.062Z,78.09
2023-10-09T05:05:59.937Z,78.37
2023-10-09T05:08:31.086Z,78.29
2023-10-09T05:11:02.457Z,78.25
2023-10-09T05:13:43.107Z,78.04
2023-10-09T05:16:27.899Z,78.27
2023-10-09T05:18:57.749Z,78.63
2023-10-09T05:21:32.361Z,78.51
2023-10-09T05:24:13.439Z,78.52
2023-10-09T05:26:49.074Z,78.53
2023-10-09T05:29:34.346Z,78.89
2023-10-09T05:32:06.724Z,78.98
2023-10-09T05:35:12.582Z,78.33
2023-10-09T05:37:44.287Z,78.24
2023-10-09T05:40:11.756Z,78.72
2023-10-09T05:42:38.696Z,79.09
2023-10-09T05:45:19.962Z,78.97
2023-10-09T05:47:55.150Z,78.86
2023-10-09T05:50:23.411Z,78.73
2023-10-09T05:52:54.678Z,79.42
2023-10-09T05:55:23.760Z,78.85
2023-10-09T05:58:14.850Z,78.74
2023-10-09T06:01:00.422Z,79.27
2023-10-09T06:03:27.593Z,79.19
2023-10-09T06:05:59.670Z,79.15
2023-10-09T06:08:49.417Z,79.63
2023-10-09T06:11:34.342Z,79.14
2023-10-09T06:14:13.280Z,79.18
2023-10-09T06:16:43.070Z,79.49
2023-10-09T06:19:22.007Z,79.24
2023-10-09T06:21:54.767Z,79.72
2023-10-09T06:24:27.214Z,79.31
2023-10-09T06:27:00.116Z,79.83
2023-10-09T06:29:36.808Z,79.94
2023-10-09T06:32:27.746Z,79.36
2023-10-09T06:35:16.775Z,79.55
2023-10-09T06:38:14.817Z,79.73
2023-10-09T06:41:01.337Z,79.58
2023-10-09T06:43:29.620Z,79.84
2023-10-09T06:46:17.008Z,79.36
2023-10-09T06:48:46.877Z,79.45
2023-10-09T06:51:27.350Z,78.71
2023-10-09T06:53:58.084Z,79.63
2023-10-09T06:56:30.654Z,79.69
2023-10-09T06:58:58.917Z,79.55
2023-10-09T07:01:29.495Z,79.44
2023-10-09T07:04:16.492Z,79.25
2023-10-09T07:06:43.753Z,79.07
2023-10-09T07:09:10.761Z,78.89
2023-10-09T07:11:40.778Z,78.81
2023-10-09T07:14:44.337Z,78.74
2023-10-09T07:17:23.065Z,79.23
2023-10-09T07:19:52.532Z,78.49
2023-10-09T07:22:22.274Z,78.89
2023-10-09T07:24:58.851Z,78.86
2023-10-09T07:27:46.039Z,78.52
2023-10-09T07:30:31.405Z,78.42
2023-10-09T07:33:13.109Z,77.40
2023-10-09T07:35:49.190Z,77.73
2023-10-09T07:38:29.413Z,77.54
2023-10-09T07:41:06.776Z,77.51
2023-10-09T07:43:44.671Z,77.42
2023-10-09T07:46:34.188Z,76.97
2023-10-09T07:49:13.676Z,76.89
2023-10-09T07:51:45.103Z,77.16
2023-10-09T07:54:16.098Z,76.79
2023-10-09T07:56:47.637Z,76.29
2023-10-09T07:59:19.701Z,76.30
2023-10-09T08:02:00.106Z,76.28
2023-10-09T08:05:34.870Z,76.09
2023-10-09T08:08:39.534Z,75.31
2023-10-09T08:11:28.368Z,75.23
2023-10-09T08:13:58.344Z,75.66
2023-10-09T08:16:37.181Z,75.39
2023-10-09T08:19:40.796Z,75.04
2023-10-09T08:22:25.773Z,74.94
2023-10-09T08:24:57.166Z,74.87
2023-10-09T08:27:34.033Z,74.22
2023-10-09T08:30:20.614Z,74.69
2023-10-09T08:35:52.540Z,74.41
2023-10-09T08:38:25.972Z,73.80
2023-10-09T08:41:01.382Z,73.21
2023-10-09T08:43:33.640Z,73.41
2023-10-09T08:46:04.458Z,72.74
2023-10-09T08:48:32.113Z,72.77
2023-10-09T08:50:59.159Z,71.73
2023-10-09T08:53:29.036Z,71.03
2023-10-09T08:55:56.661Z,67.89
2023-10-09T08:58:43.580Z,69.26
2023-10-09T09:01:22.309Z,69.18
2023-10-09T09:03:51.565Z,68.10
2023-10-09T09:06:20.359Z,67.57
2023-10-09T09:08:48.654Z,67.31
2023-10-09T09:11:19.115Z,67.37
2023-10-09T09:14:00.118Z,66.93
2023-10-09T09:16:33.158Z,66.30
2023-10-09T09:19:06.127Z,65.18
2023-10-09T09:21:41.990Z,65.62
2023-10-09T09:24:28.124Z,65.52
2023-10-09T09:27:13.737Z,65.23
2023-10-09T09:29:43.096Z,65.12
2023-10-09T09:32:21.893Z,62.23
2023-10-09T09:34:56.728Z,61.74
2023-10-09T09:37:33.034Z,61.45
2023-10-09T09:40:02.566Z,61.41
2023-10-09T09:42:32.768Z,61.22
2023-10-09T09:45:05.883Z,60.32
2023-10-09T09:47:37.264Z,58.57
2023-10-09T09:50:14.796Z,56.60
2023-10-09T09:52:42.317Z,57.31
2023-10-09T09:55:23.522Z,56.95
2023-10-09T09:57:53.809Z,57.44
2023-10-09T10:00:44.028Z,56.78
2023-10-09T10:03:16.118Z,55.93
2023-10-09T10:05:47.655Z,56.56
2023-10-09T10:08:21.468Z,55.43
2023-10-09T10:11:06.012Z,55.25
2023-10-09T10:13:43.208Z,52.88
2023-10-09T10:16:21.241Z,53.63
2023-10-09T10:19:01.556Z,51.87
2023-10-09T10:21:33.252Z,51.62
2023-10-09T10:24:07.097Z,52.26
2023-10-09T10:26:37.384Z,53.25
2023-10-09T10:29:24.534Z,52.80
2023-10-09T10:32:11.721Z,52.54
2023-10-09T10:34:48.846Z,51.18
2023-10-09T10:37:15.863Z,50.93
2023-10-09T10:39:52.657Z,50.68
2023-10-09T10:42:37.603Z,51.18
2023-10-09T10:45:26.286Z,48.95
2023-10-09T10:47:59.465Z,49.75
2023-10-09T10:50:32.627Z,49.75
2023-10-09T10:53:36.284Z,50.44
2023-10-09T10:56:16.058Z,49.87
2023-10-09T10:58:55.817Z,49.09
2023-10-09T11:01:27.355Z,49.33
2023-10-09T11:03:57.925Z,49.18
2023-10-09T11:06:38.965Z,46.23
2023-10-09T11:09:24.620Z,46.64
2023-10-09T11:12:13.105Z,46.27
2023-10-09T11:15:09.929Z,46.36
2023-10-09T11:17:39.774Z,46.20
2023-10-09T11:20:33.067Z,46.44
2023-10-09T11:23:12.461Z,46.21
2023-10-09T11:25:52.402Z,45.05
2023-10-09T11:28:43.542Z,45.35
2023-10-09T11:31:17.094Z,44.16
2023-10-09T11:33:52.681Z,43.47
2023-10-09T11:36:35.619Z,44.03
2023-10-09T11:39:32.303Z,43.71
2023-10-09T11:42:10.551Z,43.88
2023-10-09T11:44:45.596Z,43.52
2023-10-09T11:47:19.554Z,43.84
2023-10-09T11:49:59.802Z,43.60
2023-10-09T11:52:32.803Z,43.69
2023-10-09T11:54:59.889Z,41.85
2023-10-09T11:57:36.545Z,42.20
2023-10-09T12:00:12.842Z,41.12
2023-10-09T12:02:45.384Z,41.34
2023-10-09T12:05:18.239Z,41.46
2023-10-09T12:07:56.146Z,41.71
2023-10-09T12:10:26.970Z,42.14
2023-10-09T12:12:54.927Z,42.64
2023-10-09T12:15:22.032Z,41.09
2023-10-09T12:17:49.040Z,41.06
2023-10-09T12:20:31.756Z,41.26
2023-10-09T12:23:07.296Z,41.54
2023-10-09T12:25:36.373Z,40.23
2023-10-09T12:28:08.061Z,40.30
2023-10-09T12:30:40.945Z,40.85
2023-10-09T12:33:09.898Z,40.62
2023-10-09T12:35:41.584Z,39.85
2023-10-09T12:38:11.718Z,39.59
2023-10-09T12:40:43.640Z,39.69
2023-10-09T12:43:18.118Z,39.93
2023-10-09T12:45:46.170Z,39.48
2023-10-09T12:48:15.517Z,38.81
2023-10-09T12:50:42.961Z,39.43
2023-10-09T12:53:10.182Z,38.58
2023-10-09T12:55:42.302Z,37.97
2023-10-09T12:58:15.492Z,38.36
2023-10-09T13:00:50.383Z,38.35
2023-10-09T13:03:19.362Z,38.28
2023-10-09T13:05:59.365Z,37.40
2023-10-09T13:08:36.173Z,36.57
2023-10-09T13:11:12.193Z,37.30
2023-10-09T13:13:43.962Z,36.02
2023-10-09T13:16:26.247Z,36.24
2023-10-09T13:18:54.868Z,36.51
2023-10-09T13:21:24.702Z,36.19
2023-10-09T13:23:52.353Z,35.28
2023-10-09T13:26:32.253Z,35.17
2023-10-09T13:29:02.861Z,35.63
2023-10-09T13:31:33.338Z,35.46
2023-10-09T13:34:02.281Z,34.89
2023-10-09T13:36:35.814Z,34.67
2023-10-09T13:39:21.406Z,34.78
2023-10-09T13:41:49.749Z,34.03
2023-10-09T13:44:17.553Z,34.41
2023-10-09T13:46:45.460Z,34.67
2023-10-09T13:49:15.875Z,35.76
2023-10-09T13:51:46.059Z,33.71
2023-10-09T13:54:29.460Z,33.82
2023-10-09T13:56:56.571Z,34.62
2023-10-09T13:59:26.406Z,35.39
2023-10-09T14:01:57.845Z,34.84
2023-10-09T14:04:27.343Z,34.09
2023-10-09T14:07:00.651Z,33.87
2023-10-09T14:09:46.340Z,33.97
2023-10-09T14:12:16.347Z,34.93
2023-10-09T14:14:48.881Z,35.45
2023-10-09T14:17:20.581Z,34.68
2023-10-09T14:19:52.621Z,33.39
2023-10-09T14:22:22.298Z,34.39
2023-10-09T14:24:56.388Z,33.93
2023-10-09T14:27:31.252Z,34.10
2023-10-09T14:30:02.039Z,34.54
2023-10-09T14:32:38.681Z,35.15
2023-10-09T14:35:14.117Z,35.39
2023-10-09T14:37:42.722Z,35.31
2023-10-09T14:40:22.836Z,35.46
2023-10-09T14:42:55.889Z,35.94
2023-10-09T14:45:28.535Z,35.88
2023-10-09T14:47:55.903Z,36.89
2023-10-09T14:50:23.981Z,36.24
2023-10-09T14:52:51.930Z,36.50
2023-10-09T14:55:22.532Z,37.07
2023-10-09T14:57:51.274Z,36.76
2023-10-09T15:00:24.117Z,36.09
2023-10-09T15:02:52.130Z,36.98
2023-10-09T15:05:19.440Z,36.40
2023-10-09T15:07:47.827Z,36.80
2023-10-09T15:10:19.392Z,37.42
2023-10-09T15:12:49.703Z,37.21
2023-10-09T15:15:17.892Z,36.83
2023-10-09T15:17:45.179Z,37.42
2023-10-09T15:20:16.124Z,37.91
2023-10-09T15:22:43.630Z,37.50
2023-10-09T15:25:15.773Z,38.15
2023-10-09T15:27:44.435Z,38.41
2023-10-09T15:30:15.062Z,37.89
2023-10-09T15:32:43.218Z,37.91
2023-10-09T15:35:11.509Z,38.17
2023-10-09T15:37:38.802Z,38.13
2023-10-09T15:40:16.347Z,38.45
2023-10-09T15:42:50.810Z,39.30
2023-10-09T15:45:22.629Z,39.16
2023-10-09T15:47:52.315Z,39.26
2023-10-09T15:50:20.862Z,39.70
2023-10-09T15:52:50.541Z,39.92
2023-10-09T15:55:22.035Z,39.41
2023-10-09T15:57:50.027Z,40.32
2023-10-09T16:00:19.652Z,41.12
2023-10-09T16:02:54.381Z,41.30
2023-10-09T16:05:26.698Z,41.97
2023-10-09T16:07:55.351Z,42.03
2023-10-09T16:10:24.265Z,42.44
2023-10-09T16:12:54.247Z,43.00
2023-10-09T16:15:21.691Z,43.48
2023-10-09T16:17:50.243Z,43.83
2023-10-09T16:20:23.398Z,44.63
2023-10-09T16:22:51.487Z,44.71
2023-10-09T16:25:22.137Z,45.19
2023-10-09T16:27:49.078Z,45.91
2023-10-09T16:30:22.141Z,46.00
2023-10-09T16:32:51.681Z,46.30
2023-10-09T16:35:19.278Z,47.20
2023-10-09T16:37:50.735Z,47.13
2023-10-09T16:40:21.759Z,47.52
2023-10-09T16:42:54.572Z,47.83
2023-10-09T16:45:22.119Z,48.59
2023-10-09T16:47:52.396Z,48.93
2023-10-09T16:50:20.881Z,48.87
2023-10-09T16:52:48.353Z,49.10
2023-10-09T16:55:16.599Z,49.06
2023-10-09T16:57:45.079Z,49.55
2023-10-09T17:00:46.295Z,49.11
2023-10-09T17:03:15.901Z,49.67
2023-10-09T17:05:59.646Z,49.43
2023-10-09T17:08:30.837Z,49.64
2023-10-09T17:10:58.702Z,49.55
2023-10-09T17:13:27.700Z,49.21
2023-10-09T17:15:54.908Z,49.44
2023-10-09T17:18:26.618Z,49.33
2023-10-09T17:20:55.531Z,49.88
2023-10-09T17:23:23.745Z,50.33
2023-10-09T17:25:58.650Z,50.80
2023-10-09T17:28:26.668Z,50.61
2023-10-09T17:31:02.319Z,51.18
2023-10-09T17:33:29.508Z,50.73
2023-10-09T17:35:56.503Z,50.76
2023-10-09T17:38:23.967Z,50.59
2023-10-09T17:40:54.423Z,51.27
2023-10-09T17:43:22.384Z,51.03
2023-10-09T17:45:53.877Z,51.46
2023-10-09T17:48:25.306Z,51.56
2023-10-09T17:50:54.049Z,51.06
2023-10-09T17:53:21.144Z,52.24
2023-10-09T17:55:48.814Z,52.93
2023-10-09T17:58:16.248Z,52.49
2023-10-09T18:00:44.262Z,52.79
2023-10-09T18:03:16.839Z,53.61
2023-10-09T18:05:46.025Z,53.56
2023-10-09T18:08:16.233Z,53.73
2023-10-09T18:10:44.717Z,54.10
2023-10-09T18:13:18.147Z,53.52
2023-10-09T18:15:45.783Z,54.19
2023-10-09T18:18:22.015Z,54.27
2023-10-09T18:20:53.605Z,54.07
2023-10-09T18:23:20.864Z,53.66
2023-10-09T18:25:50.905Z,53.54
2023-10-09T18:28:18.764Z,53.49
2023-10-09T18:30:50.298Z,53.96
2023-10-09T18:33:17.778Z,53.40
2023-10-09T18:35:45.099Z,53.68
2023-10-09T18:38:17.296Z,53.43
2023-10-09T18:40:50.882Z,53.28
2023-10-09T18:43:20.641Z,53.64
2023-10-09T18:45:47.676Z,54.03
2023-10-09T18:48:19.259Z,54.10
2023-10-09T18:50:46.360Z,53.86
2023-10-09T18:53:14.283Z,54.76
2023-10-09T18:55:41.828Z,54.38
2023-10-09T18:58:12.678Z,54.67
2023-10-09T19:00:50.129Z,54.52
2023-10-09T19:03:21.510Z,55.27
2023-10-09T19:05:48.854Z,54.83
2023-10-09T19:08:19.360Z,54.60
2023-10-09T19:10:47.322Z,55.38
2023-10-09T19:13:15.167Z,55.24
2023-10-09T19:15:45.919Z,55.97
2023-10-09T19:18:15.714Z,55.47
2023-10-09T19:20:43.925Z,55.76
2023-10-09T19:23:12.770Z,55.54
2023-10-09T19:25:44.158Z,55.81
2023-10-09T19:28:13.280Z,55.86
2023-10-09T19:30:40.376Z,55.81
2023-10-09T19:33:07.357Z,56.02
2023-10-09T19:35:35.338Z,55.91
2023-10-09T19:38:03.794Z,55.83
2023-10-09T19:40:34.023Z,56.10
2023-10-09T19:43:01.476Z,55.78
2023-10-09T19:45:31.530Z,55.57
2023-10-09T19:47:58.833Z,55.75
2023-10-09T19:50:26.435Z,56.67
2023-10-09T19:52:53.722Z,56.57
2023-10-09T19:55:23.556Z,56.62
2023-10-09T19:57:52.362Z,57.05
2023-10-09T20:00:22.805Z,56.87
2023-10-09T20:02:54.813Z,56.66
2023-10-09T20:05:23.976Z,56.87
2023-10-09T20:07:51.298Z,57.11
2023-10-09T20:10:19.535Z,56.68
2023-10-09T20:12:46.964Z,56.93
2023-10-09T20:15:14.386Z,57.11
2023-10-09T20:17:44.630Z,57.20
2023-10-09T20:20:13.265Z,57.53
2023-10-09T20:22:41.053Z,57.24
2023-10-09T20:25:14.374Z,57.18
2023-10-09T20:27:44.318Z,57.42
2023-10-09T20:30:12.407Z,57.30
2023-10-09T20:32:42.982Z,57.26
2023-10-09T20:35:13.540Z,57.54
2023-10-09T20:37:41.899Z,57.17
2023-10-09T20:40:18.880Z,57.41
2023-10-09T20:42:48.776Z,57.85
2023-10-09T20:45:19.347Z,58.24
2023-10-09T20:47:47.720Z,58.36
2023-10-09T20:50:18.451Z,58.74
2023-10-09T20:52:50.139Z,58.55
2023-10-09T20:55:21.030Z,58.51
2023-10-09T20:58:00.543Z,58.71
2023-10-09T21:00:33.352Z,58.71
2023-10-09T21:03:01.386Z,58.91
2023-10-09T21:05:29.463Z,59.71
2023-10-09T21:07:57.314Z,58.88
2023-10-09T21:10:25.022Z,58.70
2023-10-09T21:12:52.942Z,59.49
2023-10-09T21:15:22.034Z,59.39
2023-10-09T21:17:53.404Z,59.50
2023-10-09T21:20:27.137Z,59.46
2023-10-09T21:22:57.653Z,59.15
2023-10-09T21:25:28.383Z,59.54
2023-10-09T21:27:56.201Z,59.47
2023-10-09T21:30:25.070Z,59.53
2023-10-09T21:32:55.203Z,59.19
2023-10-09T21:35:29.639Z,59.75
2023-10-09T21:38:01.494Z,60.13
2023-10-09T21:40:31.059Z,60.39
2023-10-09T21:43:07.868Z,60.83
2023-10-09T21:45:40.325Z,60.67
2023-10-09T21:48:08.108Z,61.29
2023-10-09T21:50:39.706Z,61.08
2023-10-09T21:53:07.292Z,61.38
2023-10-09T21:55:38.306Z,61.66
2023-10-09T21:58:11.857Z,61.38
2023-10-09T22:00:39.042Z,61.26
2023-10-09T22:03:09.533Z,61.65
2023-10-09T22:05:44.405Z,61.68
2023-10-09T22:08:15.242Z,61.72
2023-10-09T22:10:48.866Z,61.93
2023-10-09T22:13:16.278Z,61.50
2023-10-09T22:15:46.837Z,61.78
2023-10-09T22:18:21.625Z,61.71
2023-10-09T22:20:53.189Z,61.95
2023-10-09T22:23:20.437Z,62.35
2023-10-09T22:26:01.491Z,62.26
2023-10-09T22:28:30.640Z,62.55
2023-10-09T22:31:04.654Z,62.69
2023-10-09T22:33:50.815Z,62.58
2023-10-09T22:36:31.363Z,62.65
2023-10-09T22:39:09.342Z,63.08
2023-10-09T22:41:36.424Z,62.70
2023-10-09T22:44:11.802Z,63.18
2023-10-09T22:46:41.888Z,63.68
2023-10-09T22:49:15.817Z,64.61
2023-10-09T22:51:52.078Z,65.10
2023-10-09T22:54:47.287Z,66.00
2023-10-09T22:57:14.493Z,65.56
2023-10-09T22:59:51.689Z,66.24
2023-10-09T23:02:39.879Z,66.35
2023-10-09T23:05:13.590Z,66.38
2023-10-09T23:07:43.011Z,66.97
2023-10-09T23:10:16.827Z,66.64
2023-10-09T23:12:50.160Z,66.48
2023-10-09T23:15:34.262Z,65.83
2023-10-09T23:18:27.389Z,66.39
2023-10-09T23:21:12.862Z,65.98
2023-10-09T23:23:42.094Z,66.27
2023-10-09T23:26:11.144Z,66.13
2023-10-09T23:28:40.035Z,65.95
2023-10-09T23:31:37.244Z,65.89
2023-10-09T23:34:10.099Z,65.85
2023-10-09T23:36:44.569Z,66.41
2023-10-09T23:39:11.757Z,65.84
2023-10-09T23:41:40.954Z,65.99
2023-10-09T23:44:08.879Z,65.89
2023-10-09T23:46:39.340Z,66.20
2023-10-09T23:49:07.723Z,65.93
2023-10-09T23:51:40.716Z,66.04
2023-10-09T23:54:12.762Z,66.07
2023-10-09T23:56:44.295Z,65.96
2023-10-09T23:59:14.208Z,65.88
